sensor_id;sensor_type;location;lat;lon;timestamp;temperature;humidity
23873;DHT22;42884;50.718;4.630;2022-08-18T00:01:06;18.60;99.90
23873;DHT22;42884;50.718;4.630;2022-08-18T00:03:33;18.60;99.90
23873;DHT22;42884;50.718;4.630;2022-08-18T00:05:58;18.60;99.90
23873;DHT22;42884;50.718;4.630;2022-08-18T00:08:24;18.60;99.90
23873;DHT22;42884;50.718;4.630;2022-08-18T00:10:50;18.60;99.90
23873;DHT22;42884;50.718;4.630;2022-08-18T00:13:16;18.60;99.90
23873;DHT22;42884;50.718;4.630;2022-08-18T00:15:41;18.60;99.90
23873;DHT22;42884;50.718;4.630;2022-08-18T00:18:07;18.50;99.90
23873;DHT22;42884;50.718;4.630;2022-08-18T00:20:32;18.40;99.90
23873;DHT22;42884;50.718;4.630;2022-08-18T00:22:58;18.50;99.90
23873;DHT22;42884;50.718;4.630;2022-08-18T00:25:23;18.50;99.90
23873;DHT22;42884;50.718;4.630;2022-08-18T00:27:49;18.40;99.90
23873;DHT22;42884;50.718;4.630;2022-08-18T00:30:16;18.50;99.90
23873;DHT22;42884;50.718;4.630;2022-08-18T00:32:43;18.40;99.90
23873;DHT22;42884;50.718;4.630;2022-08-18T00:35:12;18.40;99.90
23873;DHT22;42884;50.718;4.630;2022-08-18T00:37:39;18.40;99.90
23873;DHT22;42884;50.718;4.630;2022-08-18T00:40:06;18.40;99.90
23873;DHT22;42884;50.718;4.630;2022-08-18T00:42:32;18.30;99.90
23873;DHT22;42884;50.718;4.630;2022-08-18T00:45:04;18.30;99.90
23873;DHT22;42884;50.718;4.630;2022-08-18T00:47:30;18.30;99.90
23873;DHT22;42884;50.718;4.630;2022-08-18T00:49:55;18.30;99.90
23873;DHT22;42884;50.718;4.630;2022-08-18T00:52:22;18.30;99.90
23873;DHT22;42884;50.718;4.630;2022-08-18T00:54:48;18.30;99.90
23873;DHT22;42884;50.718;4.630;2022-08-18T00:57:15;18.30;99.90
23873;DHT22;42884;50.718;4.630;2022-08-18T01:00:00;18.20;99.90
23873;DHT22;42884;50.718;4.630;2022-08-18T01:02:39;18.20;99.90
23873;DHT22;42884;50.718;4.630;2022-08-18T01:07:45;18.20;99.90
23873;DHT22;42884;50.718;4.630;2022-08-18T01:10:12;18.20;99.90
23873;DHT22;42884;50.718;4.630;2022-08-18T01:13:02;18.20;99.90
23873;DHT22;42884;50.718;4.630;2022-08-18T01:15:27;18.20;99.90
23873;DHT22;42884;50.718;4.630;2022-08-18T01:17:53;18.20;99.90
23873;DHT22;42884;50.718;4.630;2022-08-18T01:20:38;18.10;99.90
23873;DHT22;42884;50.718;4.630;2022-08-18T01:23:24;18.10;99.90
23873;DHT22;42884;50.718;4.630;2022-08-18T01:25:50;18.10;99.90
23873;DHT22;42884;50.718;4.630;2022-08-18T01:28:26;18.10;99.90
23873;DHT22;42884;50.718;4.630;2022-08-18T01:30:52;18.10;99.90
23873;DHT22;42884;50.718;4.630;2022-08-18T01:33:32;18.10;99.90
23873;DHT22;42884;50.718;4.630;2022-08-18T01:36:01;18.10;99.90
23873;DHT22;42884;50.718;4.630;2022-08-18T01:38:28;18.00;99.90
23873;DHT22;42884;50.718;4.630;2022-08-18T01:40:56;18.10;99.90
23873;DHT22;42884;50.718;4.630;2022-08-18T01:43:22;18.00;99.90
23873;DHT22;42884;50.718;4.630;2022-08-18T01:45:47;18.10;99.90
23873;DHT22;42884;50.718;4.630;2022-08-18T01:48:13;18.10;99.90
23873;DHT22;42884;50.718;4.630;2022-08-18T01:50:39;18.10;99.90
23873;DHT22;42884;50.718;4.630;2022-08-18T01:53:07;18.10;99.90
23873;DHT22;42884;50.718;4.630;2022-08-18T01:55:35;18.20;99.90
23873;DHT22;42884;50.718;4.630;2022-08-18T01:58:01;18.10;99.90
23873;DHT22;42884;50.718;4.630;2022-08-18T02:00:27;18.20;99.90
23873;DHT22;42884;50.718;4.630;2022-08-18T02:02:53;18.20;99.90
23873;DHT22;42884;50.718;4.630;2022-08-18T02:05:22;18.30;99.90
23873;DHT22;42884;50.718;4.630;2022-08-18T02:07:49;18.30;99.90
23873;DHT22;42884;50.718;4.630;2022-08-18T02:10:14;18.40;99.90
23873;DHT22;42884;50.718;4.630;2022-08-18T02:12:40;18.40;99.90
23873;DHT22;42884;50.718;4.630;2022-08-18T02:15:06;18.50;99.90
23873;DHT22;42884;50.718;4.630;2022-08-18T02:17:39;18.50;99.90
23873;DHT22;42884;50.718;4.630;2022-08-18T02:20:06;18.60;99.90
23873;DHT22;42884;50.718;4.630;2022-08-18T02:22:32;18.70;99.90
23873;DHT22;42884;50.718;4.630;2022-08-18T02:24:57;18.70;99.90
23873;DHT22;42884;50.718;4.630;2022-08-18T02:27:25;18.70;99.90
23873;DHT22;42884;50.718;4.630;2022-08-18T02:29:50;18.80;99.90
23873;DHT22;42884;50.718;4.630;2022-08-18T02:32:16;18.80;99.90
23873;DHT22;42884;50.718;4.630;2022-08-18T02:34:41;18.90;99.90
23873;DHT22;42884;50.718;4.630;2022-08-18T02:37:07;19.00;99.90
23873;DHT22;42884;50.718;4.630;2022-08-18T02:39:34;19.00;99.90
23873;DHT22;42884;50.718;4.630;2022-08-18T02:42:05;19.10;99.90
23873;DHT22;42884;50.718;4.630;2022-08-18T02:44:31;19.10;99.90
23873;DHT22;42884;50.718;4.630;2022-08-18T02:46:57;19.20;99.90
23873;DHT22;42884;50.718;4.630;2022-08-18T02:49:22;19.20;99.90
23873;DHT22;42884;50.718;4.630;2022-08-18T02:51:49;19.20;99.90
23873;DHT22;42884;50.718;4.630;2022-08-18T02:54:16;19.30;99.90
23873;DHT22;42884;50.718;4.630;2022-08-18T02:56:41;19.30;99.90
23873;DHT22;42884;50.718;4.630;2022-08-18T02:59:11;19.30;99.90
23873;DHT22;42884;50.718;4.630;2022-08-18T03:01:39;19.40;99.90
23873;DHT22;42884;50.718;4.630;2022-08-18T03:04:06;19.40;99.90
23873;DHT22;42884;50.718;4.630;2022-08-18T03:06:32;19.40;99.90
23873;DHT22;42884;50.718;4.630;2022-08-18T03:08:58;19.40;99.90
23873;DHT22;42884;50.718;4.630;2022-08-18T03:11:25;19.50;99.90
23873;DHT22;42884;50.718;4.630;2022-08-18T03:13:51;19.50;99.90
23873;DHT22;42884;50.718;4.630;2022-08-18T03:16:17;19.50;99.90
23873;DHT22;42884;50.718;4.630;2022-08-18T03:18:43;19.50;99.90
23873;DHT22;42884;50.718;4.630;2022-08-18T03:21:11;19.60;99.90
23873;DHT22;42884;50.718;4.630;2022-08-18T03:23:37;19.60;99.90
23873;DHT22;42884;50.718;4.630;2022-08-18T03:26:06;19.60;99.90
23873;DHT22;42884;50.718;4.630;2022-08-18T03:28:39;19.60;99.90
23873;DHT22;42884;50.718;4.630;2022-08-18T03:31:05;19.60;99.90
23873;DHT22;42884;50.718;4.630;2022-08-18T03:33:31;19.70;99.90
23873;DHT22;42884;50.718;4.630;2022-08-18T03:36:02;19.70;99.90
23873;DHT22;42884;50.718;4.630;2022-08-18T03:38:28;19.80;99.90
23873;DHT22;42884;50.718;4.630;2022-08-18T03:40:53;19.80;99.90
23873;DHT22;42884;50.718;4.630;2022-08-18T03:43:19;19.80;99.90
23873;DHT22;42884;50.718;4.630;2022-08-18T03:45:44;19.80;99.90
23873;DHT22;42884;50.718;4.630;2022-08-18T03:48:10;19.80;99.90
23873;DHT22;42884;50.718;4.630;2022-08-18T03:50:36;19.90;99.90
23873;DHT22;42884;50.718;4.630;2022-08-18T03:53:02;19.90;99.90
23873;DHT22;42884;50.718;4.630;2022-08-18T03:55:29;19.90;99.90
23873;DHT22;42884;50.718;4.630;2022-08-18T03:57:58;19.90;99.90
23873;DHT22;42884;50.718;4.630;2022-08-18T04:00:28;19.90;99.90
23873;DHT22;42884;50.718;4.630;2022-08-18T04:02:54;19.90;99.90
23873;DHT22;42884;50.718;4.630;2022-08-18T04:05:20;19.90;99.90
23873;DHT22;42884;50.718;4.630;2022-08-18T04:07:45;20.00;99.90
23873;DHT22;42884;50.718;4.630;2022-08-18T04:10:11;20.00;99.90
23873;DHT22;42884;50.718;4.630;2022-08-18T04:12:37;20.00;99.90
23873;DHT22;42884;50.718;4.630;2022-08-18T04:15:03;20.10;99.90
23873;DHT22;42884;50.718;4.630;2022-08-18T04:17:29;20.00;99.90
23873;DHT22;42884;50.718;4.630;2022-08-18T04:19:54;20.10;99.90
23873;DHT22;42884;50.718;4.630;2022-08-18T04:22:20;20.00;99.90
23873;DHT22;42884;50.718;4.630;2022-08-18T04:24:47;20.00;99.90
23873;DHT22;42884;50.718;4.630;2022-08-18T04:27:14;20.10;99.90
23873;DHT22;42884;50.718;4.630;2022-08-18T04:29:40;20.10;99.90
23873;DHT22;42884;50.718;4.630;2022-08-18T04:32:06;20.10;99.90
23873;DHT22;42884;50.718;4.630;2022-08-18T04:34:31;20.10;99.90
23873;DHT22;42884;50.718;4.630;2022-08-18T04:36:57;20.10;99.90
23873;DHT22;42884;50.718;4.630;2022-08-18T04:39:23;20.10;99.90
23873;DHT22;42884;50.718;4.630;2022-08-18T04:41:49;20.10;99.90
23873;DHT22;42884;50.718;4.630;2022-08-18T04:44:15;20.10;99.90
23873;DHT22;42884;50.718;4.630;2022-08-18T04:46:44;20.20;99.90
23873;DHT22;42884;50.718;4.630;2022-08-18T04:49:12;20.20;99.90
23873;DHT22;42884;50.718;4.630;2022-08-18T04:51:56;20.20;99.90
23873;DHT22;42884;50.718;4.630;2022-08-18T04:54:40;20.20;99.90
23873;DHT22;42884;50.718;4.630;2022-08-18T04:57:13;20.20;99.90
23873;DHT22;42884;50.718;4.630;2022-08-18T04:59:40;20.20;99.90
23873;DHT22;42884;50.718;4.630;2022-08-18T05:02:07;20.20;99.90
23873;DHT22;42884;50.718;4.630;2022-08-18T05:04:36;20.30;99.90
23873;DHT22;42884;50.718;4.630;2022-08-18T05:07:06;20.20;99.90
23873;DHT22;42884;50.718;4.630;2022-08-18T05:09:32;20.30;99.90
23873;DHT22;42884;50.718;4.630;2022-08-18T05:11:58;20.20;99.90
23873;DHT22;42884;50.718;4.630;2022-08-18T05:14:24;20.30;99.90
23873;DHT22;42884;50.718;4.630;2022-08-18T05:16:49;20.30;99.90
23873;DHT22;42884;50.718;4.630;2022-08-18T05:19:18;20.30;99.90
23873;DHT22;42884;50.718;4.630;2022-08-18T05:21:46;20.30;99.90
23873;DHT22;42884;50.718;4.630;2022-08-18T05:24:12;20.30;99.90
23873;DHT22;42884;50.718;4.630;2022-08-18T05:26:37;20.30;99.90
23873;DHT22;42884;50.718;4.630;2022-08-18T05:29:06;20.40;99.90
23873;DHT22;42884;50.718;4.630;2022-08-18T05:31:32;20.40;99.90
23873;DHT22;42884;50.718;4.630;2022-08-18T05:33:57;20.40;99.90
23873;DHT22;42884;50.718;4.630;2022-08-18T05:36:36;20.40;99.90
23873;DHT22;42884;50.718;4.630;2022-08-18T05:42:05;20.50;99.90
23873;DHT22;42884;50.718;4.630;2022-08-18T05:44:29;20.50;99.90
23873;DHT22;42884;50.718;4.630;2022-08-18T05:46:55;20.50;99.90
23873;DHT22;42884;50.718;4.630;2022-08-18T05:49:24;20.50;99.90
23873;DHT22;42884;50.718;4.630;2022-08-18T05:51:51;20.50;99.90
23873;DHT22;42884;50.718;4.630;2022-08-18T05:54:18;20.60;99.90
23873;DHT22;42884;50.718;4.630;2022-08-18T05:57:06;20.60;99.90
23873;DHT22;42884;50.718;4.630;2022-08-18T05:59:36;20.60;99.90
23873;DHT22;42884;50.718;4.630;2022-08-18T06:02:05;20.70;99.90
23873;DHT22;42884;50.718;4.630;2022-08-18T06:04:40;20.70;99.90
23873;DHT22;42884;50.718;4.630;2022-08-18T06:07:08;20.70;99.90
23873;DHT22;42884;50.718;4.630;2022-08-18T06:09:42;20.80;99.90
23873;DHT22;42884;50.718;4.630;2022-08-18T06:12:55;20.80;99.90
23873;DHT22;42884;50.718;4.630;2022-08-18T06:15:12;20.80;99.90
23873;DHT22;42884;50.718;4.630;2022-08-18T06:28:06;20.90;99.90
23873;DHT22;42884;50.718;4.630;2022-08-18T06:35:37;21.10;99.90
23873;DHT22;42884;50.718;4.630;2022-08-18T06:43:38;21.10;99.90
23873;DHT22;42884;50.718;4.630;2022-08-18T06:46:08;21.20;99.90
23873;DHT22;42884;50.718;4.630;2022-08-18T06:48:39;21.20;99.90
23873;DHT22;42884;50.718;4.630;2022-08-18T06:51:06;21.30;99.90
23873;DHT22;42884;50.718;4.630;2022-08-18T06:56:21;21.40;99.90
23873;DHT22;42884;50.718;4.630;2022-08-18T06:58:47;21.50;99.90
23873;DHT22;42884;50.718;4.630;2022-08-18T07:01:12;21.50;99.90
23873;DHT22;42884;50.718;4.630;2022-08-18T07:03:40;21.50;99.90
23873;DHT22;42884;50.718;4.630;2022-08-18T07:06:28;21.50;99.90
23873;DHT22;42884;50.718;4.630;2022-08-18T07:08:53;21.50;99.90
23873;DHT22;42884;50.718;4.630;2022-08-18T07:11:23;21.50;99.90
23873;DHT22;42884;50.718;4.630;2022-08-18T07:13:57;21.50;99.90
23873;DHT22;42884;50.718;4.630;2022-08-18T07:18:48;21.60;99.90
23873;DHT22;42884;50.718;4.630;2022-08-18T07:23:57;21.60;99.90
23873;DHT22;42884;50.718;4.630;2022-08-18T07:26:23;21.30;99.90
23873;DHT22;42884;50.718;4.630;2022-08-18T07:28:49;21.40;99.90
23873;DHT22;42884;50.718;4.630;2022-08-18T07:31:21;21.40;99.90
23873;DHT22;42884;50.718;4.630;2022-08-18T07:33:54;21.20;99.90
23873;DHT22;42884;50.718;4.630;2022-08-18T07:36:22;21.20;99.90
23873;DHT22;42884;50.718;4.630;2022-08-18T07:38:57;21.20;99.90
23873;DHT22;42884;50.718;4.630;2022-08-18T07:41:25;21.30;99.90
23873;DHT22;42884;50.718;4.630;2022-08-18T07:44:00;21.30;99.90
23873;DHT22;42884;50.718;4.630;2022-08-18T07:46:30;21.40;99.90
23873;DHT22;42884;50.718;4.630;2022-08-18T07:48:57;21.50;99.90
23873;DHT22;42884;50.718;4.630;2022-08-18T07:51:32;21.50;99.90
23873;DHT22;42884;50.718;4.630;2022-08-18T07:54:10;21.60;99.90
23873;DHT22;42884;50.718;4.630;2022-08-18T08:01:58;21.80;99.90
23873;DHT22;42884;50.718;4.630;2022-08-18T08:04:34;21.90;99.90
23873;DHT22;42884;50.718;4.630;2022-08-18T08:07:08;22.10;99.90
23873;DHT22;42884;50.718;4.630;2022-08-18T08:09:39;22.40;99.90
23873;DHT22;42884;50.718;4.630;2022-08-18T08:12:15;22.40;99.90
23873;DHT22;42884;50.718;4.630;2022-08-18T08:14:46;22.50;99.90
23873;DHT22;42884;50.718;4.630;2022-08-18T08:17:33;22.60;99.90
23873;DHT22;42884;50.718;4.630;2022-08-18T08:22:38;22.50;99.90
23873;DHT22;42884;50.718;4.630;2022-08-18T08:25:17;22.10;99.90
23873;DHT22;42884;50.718;4.630;2022-08-18T08:30:16;22.10;99.90
23873;DHT22;42884;50.718;4.630;2022-08-18T08:35:13;22.20;99.90
23873;DHT22;42884;50.718;4.630;2022-08-18T08:40:25;22.20;99.90
23873;DHT22;42884;50.718;4.630;2022-08-18T08:42:54;22.50;99.90
23873;DHT22;42884;50.718;4.630;2022-08-18T08:45:22;22.50;99.90
23873;DHT22;42884;50.718;4.630;2022-08-18T08:50:58;22.20;99.90
23873;DHT22;42884;50.718;4.630;2022-08-18T08:53:33;22.30;99.90
23873;DHT22;42884;50.718;4.630;2022-08-18T08:56:02;22.40;99.90
23873;DHT22;42884;50.718;4.630;2022-08-18T08:58:45;22.70;99.90
23873;DHT22;42884;50.718;4.630;2022-08-18T09:04:20;23.00;99.90
23873;DHT22;42884;50.718;4.630;2022-08-18T09:09:25;23.20;99.90
23873;DHT22;42884;50.718;4.630;2022-08-18T09:12:00;23.50;99.90
23873;DHT22;42884;50.718;4.630;2022-08-18T09:20:02;23.50;99.90
23873;DHT22;42884;50.718;4.630;2022-08-18T09:24:58;24.10;99.90
23873;DHT22;42884;50.718;4.630;2022-08-18T09:27:57;24.10;99.90
23873;DHT22;42884;50.718;4.630;2022-08-18T09:30:36;24.10;99.90
23873;DHT22;42884;50.718;4.630;2022-08-18T09:33:11;24.70;99.90
23873;DHT22;42884;50.718;4.630;2022-08-18T09:35:45;25.50;99.90
23873;DHT22;42884;50.718;4.630;2022-08-18T09:38:18;25.80;99.90
23873;DHT22;42884;50.718;4.630;2022-08-18T09:41:26;26.20;99.90
23873;DHT22;42884;50.718;4.630;2022-08-18T09:51:53;26.00;99.90
23873;DHT22;42884;50.718;4.630;2022-08-18T09:54:23;26.00;99.90
23873;DHT22;42884;50.718;4.630;2022-08-18T10:01:54;26.30;99.90
23873;DHT22;42884;50.718;4.630;2022-08-18T10:04:27;26.40;99.90
23873;DHT22;42884;50.718;4.630;2022-08-18T10:06:53;26.50;99.90
23873;DHT22;42884;50.718;4.630;2022-08-18T10:12:51;26.70;99.90
23873;DHT22;42884;50.718;4.630;2022-08-18T10:20:07;27.70;99.90
23873;DHT22;42884;50.718;4.630;2022-08-18T10:22:43;27.90;99.90
23873;DHT22;42884;50.718;4.630;2022-08-18T10:25:12;27.70;99.90
23873;DHT22;42884;50.718;4.630;2022-08-18T10:32:54;27.50;99.90
23873;DHT22;42884;50.718;4.630;2022-08-18T10:37:57;29.00;99.90
23873;DHT22;42884;50.718;4.630;2022-08-18T10:40:24;29.30;99.90
23873;DHT22;42884;50.718;4.630;2022-08-18T10:42:52;29.60;99.90
23873;DHT22;42884;50.718;4.630;2022-08-18T10:47:44;30.50;99.90
23873;DHT22;42884;50.718;4.630;2022-08-18T10:50:22;30.80;99.90
23873;DHT22;42884;50.718;4.630;2022-08-18T10:52:55;31.00;99.90
23873;DHT22;42884;50.718;4.630;2022-08-18T11:00:40;31.20;99.90
23873;DHT22;42884;50.718;4.630;2022-08-18T11:03:12;31.10;99.90
23873;DHT22;42884;50.718;4.630;2022-08-18T11:05:40;30.90;99.90
23873;DHT22;42884;50.718;4.630;2022-08-18T11:08:11;30.40;99.90
23873;DHT22;42884;50.718;4.630;2022-08-18T11:10:40;29.80;99.90
23873;DHT22;42884;50.718;4.630;2022-08-18T11:13:23;30.00;99.90
23873;DHT22;42884;50.718;4.630;2022-08-18T11:20:42;30.50;99.90
23873;DHT22;42884;50.718;4.630;2022-08-18T11:23:12;30.80;99.90
23873;DHT22;42884;50.718;4.630;2022-08-18T11:25:38;31.20;99.90
23873;DHT22;42884;50.718;4.630;2022-08-18T11:28:26;31.60;99.90
23873;DHT22;42884;50.718;4.630;2022-08-18T11:30:53;31.90;99.90
23873;DHT22;42884;50.718;4.630;2022-08-18T11:33:19;32.00;99.90
23873;DHT22;42884;50.718;4.630;2022-08-18T11:35:49;31.30;99.90
23873;DHT22;42884;50.718;4.630;2022-08-18T11:38:16;31.10;99.90
23873;DHT22;42884;50.718;4.630;2022-08-18T11:40:44;31.60;99.90
23873;DHT22;42884;50.718;4.630;2022-08-18T11:53:24;33.00;99.90
23873;DHT22;42884;50.718;4.630;2022-08-18T12:01:35;32.80;99.90
23873;DHT22;42884;50.718;4.630;2022-08-18T12:09:22;32.60;99.90
23873;DHT22;42884;50.718;4.630;2022-08-18T12:11:52;32.80;99.20
23873;DHT22;42884;50.718;4.630;2022-08-18T12:14:20;33.10;99.90
23873;DHT22;42884;50.718;4.630;2022-08-18T12:16:46;33.50;99.00
23873;DHT22;42884;50.718;4.630;2022-08-18T12:19:13;33.40;98.40
23873;DHT22;42884;50.718;4.630;2022-08-18T12:21:40;33.20;97.30
23873;DHT22;42884;50.718;4.630;2022-08-18T12:24:08;33.10;97.00
23873;DHT22;42884;50.718;4.630;2022-08-18T12:26:34;33.00;98.80
23873;DHT22;42884;50.718;4.630;2022-08-18T12:29:00;33.20;98.10
23873;DHT22;42884;50.718;4.630;2022-08-18T12:31:26;32.90;97.80
23873;DHT22;42884;50.718;4.630;2022-08-18T12:33:51;33.00;96.20
23873;DHT22;42884;50.718;4.630;2022-08-18T12:36:17;32.70;95.70
23873;DHT22;42884;50.718;4.630;2022-08-18T12:38:43;32.50;96.30
23873;DHT22;42884;50.718;4.630;2022-08-18T12:41:12;32.60;98.30
23873;DHT22;42884;50.718;4.630;2022-08-18T12:43:39;32.70;95.60
23873;DHT22;42884;50.718;4.630;2022-08-18T12:46:05;32.50;98.40
23873;DHT22;42884;50.718;4.630;2022-08-18T12:48:31;32.50;98.20
23873;DHT22;42884;50.718;4.630;2022-08-18T12:50:56;32.50;98.60
23873;DHT22;42884;50.718;4.630;2022-08-18T12:53:24;32.80;97.10
23873;DHT22;42884;50.718;4.630;2022-08-18T12:55:50;32.90;96.50
23873;DHT22;42884;50.718;4.630;2022-08-18T12:58:16;33.30;95.70
23873;DHT22;42884;50.718;4.630;2022-08-18T13:00:42;33.60;94.70
23873;DHT22;42884;50.718;4.630;2022-08-18T13:03:07;33.50;95.40
23873;DHT22;42884;50.718;4.630;2022-08-18T13:05:33;33.10;95.70
23873;DHT22;42884;50.718;4.630;2022-08-18T13:08:00;33.30;95.40
23873;DHT22;42884;50.718;4.630;2022-08-18T13:10:26;33.60;95.10
23873;DHT22;42884;50.718;4.630;2022-08-18T13:12:51;33.90;94.80
23873;DHT22;42884;50.718;4.630;2022-08-18T13:15:17;34.10;95.20
23873;DHT22;42884;50.718;4.630;2022-08-18T13:17:42;34.30;93.70
23873;DHT22;42884;50.718;4.630;2022-08-18T13:20:10;34.40;93.90
23873;DHT22;42884;50.718;4.630;2022-08-18T13:22:36;34.50;94.70
23873;DHT22;42884;50.718;4.630;2022-08-18T13:25:05;34.60;94.30
23873;DHT22;42884;50.718;4.630;2022-08-18T13:27:31;34.40;94.50
23873;DHT22;42884;50.718;4.630;2022-08-18T13:29:57;34.00;94.40
23873;DHT22;42884;50.718;4.630;2022-08-18T13:32:23;33.70;93.70
23873;DHT22;42884;50.718;4.630;2022-08-18T13:34:50;33.30;95.00
23873;DHT22;42884;50.718;4.630;2022-08-18T13:37:16;32.90;95.00
23873;DHT22;42884;50.718;4.630;2022-08-18T13:39:41;32.80;95.20
23873;DHT22;42884;50.718;4.630;2022-08-18T13:42:07;32.90;95.90
23873;DHT22;42884;50.718;4.630;2022-08-18T13:44:32;32.90;95.40
23873;DHT22;42884;50.718;4.630;2022-08-18T13:46:58;33.20;92.10
23873;DHT22;42884;50.718;4.630;2022-08-18T13:49:23;33.30;94.40
23873;DHT22;42884;50.718;4.630;2022-08-18T13:51:50;33.60;91.20
23873;DHT22;42884;50.718;4.630;2022-08-18T13:54:20;33.70;91.90
23873;DHT22;42884;50.718;4.630;2022-08-18T13:56:46;33.90;92.70
23873;DHT22;42884;50.718;4.630;2022-08-18T13:59:12;33.30;93.20
23873;DHT22;42884;50.718;4.630;2022-08-18T14:01:38;32.90;92.10
23873;DHT22;42884;50.718;4.630;2022-08-18T14:04:05;32.60;93.80
23873;DHT22;42884;50.718;4.630;2022-08-18T14:06:31;32.60;93.40
23873;DHT22;42884;50.718;4.630;2022-08-18T14:08:57;33.00;94.20
23873;DHT22;42884;50.718;4.630;2022-08-18T14:11:28;33.10;93.70
23873;DHT22;42884;50.718;4.630;2022-08-18T14:13:55;33.30;92.00
23873;DHT22;42884;50.718;4.630;2022-08-18T14:16:21;33.40;92.30
23873;DHT22;42884;50.718;4.630;2022-08-18T14:18:47;33.40;92.90
23873;DHT22;42884;50.718;4.630;2022-08-18T14:21:33;33.40;94.80
23873;DHT22;42884;50.718;4.630;2022-08-18T14:24:17;33.50;92.40
23873;DHT22;42884;50.718;4.630;2022-08-18T14:27:02;33.50;90.40
23873;DHT22;42884;50.718;4.630;2022-08-18T14:29:27;33.80;92.50
23873;DHT22;42884;50.718;4.630;2022-08-18T14:31:53;33.90;92.30
23873;DHT22;42884;50.718;4.630;2022-08-18T14:34:18;34.00;91.70
23873;DHT22;42884;50.718;4.630;2022-08-18T14:36:44;34.30;91.90
23873;DHT22;42884;50.718;4.630;2022-08-18T14:39:10;34.70;91.00
23873;DHT22;42884;50.718;4.630;2022-08-18T14:41:35;34.70;89.30
23873;DHT22;42884;50.718;4.630;2022-08-18T14:44:01;34.60;90.60
23873;DHT22;42884;50.718;4.630;2022-08-18T14:46:27;34.60;90.20
23873;DHT22;42884;50.718;4.630;2022-08-18T14:48:53;34.20;89.30
23873;DHT22;42884;50.718;4.630;2022-08-18T14:51:18;34.10;91.40
23873;DHT22;42884;50.718;4.630;2022-08-18T14:53:44;34.00;90.60
23873;DHT22;42884;50.718;4.630;2022-08-18T14:56:09;34.30;91.30
23873;DHT22;42884;50.718;4.630;2022-08-18T14:58:36;34.60;90.00
23873;DHT22;42884;50.718;4.630;2022-08-18T15:01:03;34.50;87.60
23873;DHT22;42884;50.718;4.630;2022-08-18T15:03:31;34.40;88.80
23873;DHT22;42884;50.718;4.630;2022-08-18T15:05:58;33.80;87.90
23873;DHT22;42884;50.718;4.630;2022-08-18T15:08:24;33.90;92.00
23873;DHT22;42884;50.718;4.630;2022-08-18T15:10:50;34.10;90.80
23873;DHT22;42884;50.718;4.630;2022-08-18T15:13:16;33.80;90.40
23873;DHT22;42884;50.718;4.630;2022-08-18T15:15:41;33.80;90.60
23873;DHT22;42884;50.718;4.630;2022-08-18T15:18:08;33.80;91.90
23873;DHT22;42884;50.718;4.630;2022-08-18T15:20:34;33.80;92.30
23873;DHT22;42884;50.718;4.630;2022-08-18T15:23:20;33.70;92.20
23873;DHT22;42884;50.718;4.630;2022-08-18T15:26:04;33.40;91.20
23873;DHT22;42884;50.718;4.630;2022-08-18T15:28:30;32.70;91.10
23873;DHT22;42884;50.718;4.630;2022-08-18T15:30:57;32.30;91.30
23873;DHT22;42884;50.718;4.630;2022-08-18T15:33:22;32.10;91.70
23873;DHT22;42884;50.718;4.630;2022-08-18T15:35:49;31.80;92.30
23873;DHT22;42884;50.718;4.630;2022-08-18T15:38:19;31.60;92.30
23873;DHT22;42884;50.718;4.630;2022-08-18T15:40:53;31.50;92.80
23873;DHT22;42884;50.718;4.630;2022-08-18T15:43:19;31.30;92.70
23873;DHT22;42884;50.718;4.630;2022-08-18T15:45:46;31.00;93.20
23873;DHT22;42884;50.718;4.630;2022-08-18T15:48:15;31.00;92.90
23873;DHT22;42884;50.718;4.630;2022-08-18T15:50:41;30.70;93.40
23873;DHT22;42884;50.718;4.630;2022-08-18T15:53:08;30.70;95.00
23873;DHT22;42884;50.718;4.630;2022-08-18T15:55:36;30.70;95.50
23873;DHT22;42884;50.718;4.630;2022-08-18T15:58:02;30.80;94.90
23873;DHT22;42884;50.718;4.630;2022-08-18T16:00:28;30.90;94.50
23873;DHT22;42884;50.718;4.630;2022-08-18T16:02:55;31.00;94.00
23873;DHT22;42884;50.718;4.630;2022-08-18T16:05:21;30.90;94.30
23873;DHT22;42884;50.718;4.630;2022-08-18T16:07:48;30.80;94.90
23873;DHT22;42884;50.718;4.630;2022-08-18T16:10:14;30.70;93.70
23873;DHT22;42884;50.718;4.630;2022-08-18T16:12:40;30.70;94.30
23873;DHT22;42884;50.718;4.630;2022-08-18T16:15:05;30.60;95.10
23873;DHT22;42884;50.718;4.630;2022-08-18T16:17:31;30.40;96.30
23873;DHT22;42884;50.718;4.630;2022-08-18T16:19:57;30.30;96.00
23873;DHT22;42884;50.718;4.630;2022-08-18T16:22:24;30.00;97.10
23873;DHT22;42884;50.718;4.630;2022-08-18T16:24:49;29.90;97.80
23873;DHT22;42884;50.718;4.630;2022-08-18T16:27:15;29.90;97.40
23873;DHT22;42884;50.718;4.630;2022-08-18T16:29:41;29.80;96.80
23873;DHT22;42884;50.718;4.630;2022-08-18T16:32:06;29.90;97.30
23873;DHT22;42884;50.718;4.630;2022-08-18T16:34:32;30.00;97.10
23873;DHT22;42884;50.718;4.630;2022-08-18T16:36:59;30.10;96.60
23873;DHT22;42884;50.718;4.630;2022-08-18T16:39:24;30.30;96.70
23873;DHT22;42884;50.718;4.630;2022-08-18T16:41:50;30.40;96.70
23873;DHT22;42884;50.718;4.630;2022-08-18T16:44:15;30.50;96.20
23873;DHT22;42884;50.718;4.630;2022-08-18T16:46:41;30.50;95.70
23873;DHT22;42884;50.718;4.630;2022-08-18T16:49:07;30.50;95.70
23873;DHT22;42884;50.718;4.630;2022-08-18T16:51:33;30.50;96.00
23873;DHT22;42884;50.718;4.630;2022-08-18T16:53:59;30.30;96.00
23873;DHT22;42884;50.718;4.630;2022-08-18T16:56:26;30.10;95.40
23873;DHT22;42884;50.718;4.630;2022-08-18T16:58:53;30.10;96.30
23873;DHT22;42884;50.718;4.630;2022-08-18T17:01:37;29.90;95.50
23873;DHT22;42884;50.718;4.630;2022-08-18T17:04:23;29.80;96.50
23873;DHT22;42884;50.718;4.630;2022-08-18T17:06:49;29.70;96.80
23873;DHT22;42884;50.718;4.630;2022-08-18T17:09:15;29.60;97.00
23873;DHT22;42884;50.718;4.630;2022-08-18T17:11:40;29.50;96.40
23873;DHT22;42884;50.718;4.630;2022-08-18T17:14:06;29.40;96.00
23873;DHT22;42884;50.718;4.630;2022-08-18T17:16:33;29.50;96.70
23873;DHT22;42884;50.718;4.630;2022-08-18T17:18:59;29.40;97.20
23873;DHT22;42884;50.718;4.630;2022-08-18T17:21:26;29.20;96.60
23873;DHT22;42884;50.718;4.630;2022-08-18T17:23:52;29.00;96.90
23873;DHT22;42884;50.718;4.630;2022-08-18T17:28:44;28.90;98.60
23873;DHT22;42884;50.718;4.630;2022-08-18T17:31:14;28.80;98.70
23873;DHT22;42884;50.718;4.630;2022-08-18T17:33:40;28.80;99.70
23873;DHT22;42884;50.718;4.630;2022-08-18T17:36:07;28.60;99.90
23873;DHT22;42884;50.718;4.630;2022-08-18T17:38:38;28.40;99.70
23873;DHT22;42884;50.718;4.630;2022-08-18T17:41:08;28.30;99.90
23873;DHT22;42884;50.718;4.630;2022-08-18T17:43:35;28.20;99.90
23873;DHT22;42884;50.718;4.630;2022-08-18T17:46:04;28.20;99.90
23873;DHT22;42884;50.718;4.630;2022-08-18T17:48:35;28.10;99.90
23873;DHT22;42884;50.718;4.630;2022-08-18T17:51:03;28.10;99.90